Terminal Aerodrome Forecast
Issued by NWS

Home | Current Version | Previous Version | Text Only | Print | Product List | Glossary On
Versions: 1 2 3 4 5 6 7 8 9 10 11 12 13 14 15 16
000
FTUS43 KGRB 211100
TAFRHI
TAF
KRHI 211126Z 2112/2212 VRB03KT 1/4SM FG VV002
      TEMPO 2112/2114 1 1/2SM -SHRA BR SCT002 BKN030
     FM211400 22006KT 4SM BR VCSH BKN035 OVC070
      TEMPO 2116/2118 4SM -SHRA BR
     FM211800 29009KT P6SM SCT020 BKN035
     FM212200 31012G20KT P6SM SCT020
      TEMPO 2205/2209 BKN020=

USA.gov is the U.S. government's official web portal to all federal, state and local government web resources and services.